Time;durP1;ratioP1;P1;durP2;ratioP2;P2;SDS_P1;SDS_P2;PMS_P1;PMS_P2;Temp;Humidity;BMP_temperature;BMP_pressure;BME280_temperature;BME280_humidity;BME280_pressure;Samples;Min_cycle;Max_cycle;Signal;HPM_P1;HPM_P2
2023/10/24 00:04:12;;;;;;;5.60;3.30;;;;;;;-0.20;82.88;100726.63;10265305;29;20438;-68
2023/10/24 00:09:15;;;;;;;4.15;3.03;;;;;;;-0.17;82.90;100731.63;10269370;29;20046;-68
2023/10/24 00:14:17;;;;;;;3.15;2.00;;;;;;;-0.19;83.07;100739.09;10266444;29;20467;-68
2023/10/24 00:19:19;;;;;;;5.10;3.05;;;;;;;-0.21;83.21;100741.16;10269169;28;20043;-68
2023/10/24 00:24:22;;;;;;;5.65;2.45;;;;;;;-0.20;83.09;100743.66;10276825;28;20629;-68
2023/10/24 00:29:24;;;;;;;5.15;2.97;;;;;;;-0.17;83.71;100753.22;10251802;29;20055;-68
2023/10/24 00:34:26;;;;;;;6.97;2.85;;;;;;;-0.17;84.18;100755.91;10252905;28;20039;-68
2023/10/24 00:39:28;;;;;;;2.80;2.13;;;;;;;-0.19;84.73;100756.09;10269324;28;20043;-68
2023/10/24 00:44:47;;;;;;;5.18;2.58;;;;;;;-0.27;86.05;100763.56;10251608;28;20054;-68
2023/10/24 00:49:51;;;;;;;3.83;2.63;;;;;;;-0.26;86.41;100749.06;10265440;28;20031;-68
2023/10/24 00:54:54;;;;;;;4.75;2.70;;;;;;;-0.27;86.73;100758.19;10251663;28;20031;-68
2023/10/24 00:59:57;;;;;;;5.78;2.60;;;;;;;-0.27;87.47;100760.88;10268100;29;20047;-69
2023/10/24 01:05:00;;;;;;;3.58;2.00;;;;;;;-0.28;88.47;100773.53;10285569;28;20073;-66
2023/10/24 01:10:03;;;;;;;3.13;2.10;;;;;;;-0.22;88.48;100774.56;10277860;28;20039;-68
2023/10/24 01:15:06;;;;;;;2.63;2.13;;;;;;;-0.20;88.82;100780.56;10275781;29;20047;-68
2023/10/24 01:20:09;;;;;;;4.43;2.55;;;;;;;-0.17;89.38;100790.97;10249295;29;20043;-70
2023/10/24 01:25:13;;;;;;;4.97;2.58;;;;;;;-0.26;89.65;100790.34;10277900;29;20050;-70
2023/10/24 01:30:16;;;;;;;4.22;2.53;;;;;;;-0.25;89.63;100797.38;10248549;28;20051;-69
2023/10/24 01:35:19;;;;;;;2.63;2.03;;;;;;;-0.31;90.81;100796.34;10271901;29;20039;-70
2023/10/24 01:40:22;;;;;;;4.20;2.50;;;;;;;-0.24;90.49;100801.72;10276599;28;20049;-70
2023/10/24 01:45:24;;;;;;;5.30;2.38;;;;;;;-0.12;90.10;100810.03;10264270;28;20542;-70
2023/10/24 01:50:27;;;;;;;4.70;2.30;;;;;;;-0.11;89.81;100800.91;10284435;28;20043;-69
2023/10/24 01:55:30;;;;;;;3.30;2.00;;;;;;;-0.14;90.15;100809.44;10273174;28;20045;-69
2023/10/24 02:00:32;;;;;;;3.47;2.10;;;;;;;-0.11;90.53;100814.41;10284034;28;20070;-69
2023/10/24 02:05:35;;;;;;;4.88;1.98;;;;;;;-0.07;90.43;100827.25;10272856;29;20050;-69
2023/10/24 02:10:38;;;;;;;3.47;2.05;;;;;;;-0.02;89.97;100826.63;10287177;28;20046;-69
2023/10/24 02:15:41;;;;;;;3.45;2.30;;;;;;;0.01;89.69;100831.63;10284770;28;20058;-70
2023/10/24 02:20:43;;;;;;;3.38;1.95;;;;;;;0.08;89.47;100837.03;10259089;28;20507;-70
2023/10/24 02:25:46;;;;;;;4.95;1.98;;;;;;;0.12;88.77;100832.88;10265179;29;20461;-70
2023/10/24 02:30:48;;;;;;;2.20;1.67;;;;;;;0.10;88.76;100846.56;10263828;28;20075;-70
2023/10/24 02:35:50;;;;;;;2.72;1.88;;;;;;;0.16;88.27;100847.59;10274938;28;20031;-69
2023/10/24 02:40:53;;;;;;;2.40;1.85;;;;;;;0.17;88.51;100849.25;10258025;29;20039;-69
2023/10/24 02:45:57;;;;;;;2.92;2.15;;;;;;;0.12;88.64;100855.28;10266698;29;20511;-69
2023/10/24 02:51:00;;;;;;;3.08;2.20;;;;;;;0.26;88.02;100850.72;10272447;28;20050;-70
2023/10/24 02:56:12;;;;;;;3.35;1.80;;;;;;;0.31;87.66;100861.72;10260660;29;20054;-70
2023/10/24 03:01:14;;;;;;;3.70;2.03;;;;;;;0.18;88.04;100865.25;10271283;28;20058;-70
2023/10/24 03:06:18;;;;;;;2.85;1.65;;;;;;;0.24;88.22;100877.91;10256425;28;20178;-71
2023/10/24 03:11:28;;;;;;;5.55;1.92;;;;;;;0.29;87.58;100877.28;10252844;29;20054;-69
2023/10/24 03:16:33;;;;;;;2.60;1.63;;;;;;;0.30;87.83;100885.16;10273183;28;20507;-70
2023/10/24 03:21:39;;;;;;;3.60;1.85;;;;;;;0.41;87.36;100888.28;10255402;29;20039;-69
2023/10/24 03:26:49;;;;;;;2.47;1.38;;;;;;;0.47;86.30;100895.56;10232765;29;20470;-70
2023/10/24 03:31:55;;;;;;;2.22;1.27;;;;;;;0.41;85.69;100891.00;10280424;28;20047;-71
2023/10/24 03:37:20;;;;;;;4.43;1.73;;;;;;;0.43;85.94;100899.72;10271325;29;20055;-69
2023/10/24 03:42:25;;;;;;;2.88;1.80;;;;;;;0.52;85.94;100899.31;10271131;28;20068;-69
2023/10/24 03:47:27;;;;;;;3.80;2.20;;;;;;;0.58;86.37;100913.84;10271763;28;20046;-70
2023/10/24 03:52:30;;;;;;;3.80;2.10;;;;;;;0.51;86.63;100921.09;10245201;29;20039;-69
2023/10/24 03:57:33;;;;;;;2.70;1.85;;;;;;;0.58;86.05;100924.63;10279375;28;20035;-69
2023/10/24 04:02:39;;;;;;;3.97;2.42;;;;;;;0.57;86.52;100933.78;10287082;29;20066;-69
2023/10/24 04:07:42;;;;;;;3.40;2.40;;;;;;;0.49;86.57;100932.09;10291693;28;20023;-71
2023/10/24 04:12:48;;;;;;;4.43;2.22;;;;;;;0.45;86.01;100936.25;10252535;29;20090;-70
2023/10/24 04:17:51;;;;;;;4.50;2.58;;;;;;;0.42;86.93;100943.94;10255100;29;20044;-71
2023/10/24 04:22:53;;;;;;;4.13;2.08;;;;;;;0.36;86.58;100942.09;10277315;28;20046;-70
2023/10/24 04:27:57;;;;;;;5.95;2.22;;;;;;;0.36;87.46;100958.28;10285091;28;20066;-70
2023/10/24 04:32:59;;;;;;;6.05;2.92;;;;;;;0.44;87.16;100963.47;10265387;28;20046;-70
2023/10/24 04:38:02;;;;;;;10.60;2.83;;;;;;;0.39;87.24;100971.34;10256507;28;20039;-72
2023/10/24 04:43:05;;;;;;;11.50;2.90;;;;;;;0.37;86.94;100984.22;10280781;28;20556;-70
2023/10/24 04:48:08;;;;;;;11.00;3.00;;;;;;;0.29;88.01;100990.63;10288670;28;20094;-70
2023/10/24 04:53:10;;;;;;;10.27;2.72;;;;;;;0.26;88.52;100996.44;10257499;29;20051;-70
2023/10/24 04:58:13;;;;;;;4.82;2.60;;;;;;;0.25;89.05;101001.03;10246824;28;20042;-71
2023/10/24 05:03:16;;;;;;;4.78;2.40;;;;;;;0.22;90.57;101006.84;10287719;28;20038;-71
2023/10/24 05:08:18;;;;;;;6.22;2.38;;;;;;;0.23;91.29;101008.50;10316656;28;20459;-70
2023/10/24 05:13:21;;;;;;;6.38;2.35;;;;;;;0.22;91.66;101022.19;10285107;29;20042;-70
2023/10/24 05:18:24;;;;;;;4.00;1.92;;;;;;;0.18;91.73;101015.56;10284286;28;20392;-70
2023/10/24 05:23:29;;;;;;;4.18;1.63;;;;;;;0.21;91.84;101025.94;10271042;29;20047;-71
2023/10/24 05:28:32;;;;;;;2.75;1.63;;;;;;;0.20;91.47;101035.06;10284885;28;20559;-70
2023/10/24 05:33:38;;;;;;;2.75;1.55;;;;;;;0.18;91.21;101046.06;10278415;28;20037;-70
2023/10/24 05:38:41;;;;;;;1.65;1.27;;;;;;;0.17;90.98;101046.25;10269442;28;20046;-70
2023/10/24 05:43:43;;;;;;;2.65;1.45;;;;;;;0.22;90.79;101051.88;10283790;29;20526;-70
2023/10/24 05:48:46;;;;;;;2.08;1.38;;;;;;;0.30;90.41;101057.91;10282479;28;20051;-71
2023/10/24 05:53:49;;;;;;;1.67;1.08;;;;;;;0.30;90.39;101062.47;10266817;28;20047;-70
2023/10/24 05:58:52;;;;;;;2.47;1.33;;;;;;;0.27;91.40;101063.72;10280975;28;20051;-71
2023/10/24 06:03:54;;;;;;;1.83;1.40;;;;;;;0.31;91.52;101074.94;10244558;29;20530;-70
2023/10/24 06:08:57;;;;;;;2.10;1.40;;;;;;;0.22;92.00;101078.88;10247949;29;20044;-70
2023/10/24 06:14:00;;;;;;;5.18;1.70;;;;;;;0.17;92.58;101086.72;10247328;28;20046;-70
2023/10/24 06:19:02;;;;;;;2.25;1.55;;;;;;;0.16;92.55;101082.34;10280560;29;20126;-71
2023/10/24 06:24:07;;;;;;;3.67;1.40;;;;;;;0.21;92.38;101091.53;10264937;28;20058;-71
2023/10/24 06:29:09;;;;;;;2.63;1.48;;;;;;;0.28;92.21;101086.97;10282296;29;20137;-70
2023/10/24 06:34:12;;;;;;;1.88;1.40;;;;;;;0.62;91.37;101098.69;10271900;28;20043;-72
2023/10/24 06:39:14;;;;;;;2.40;1.40;;;;;;;0.56;91.03;101099.53;10282178;29;20434;-71
2023/10/24 06:44:17;;;;;;;2.35;1.40;;;;;;;0.49;89.90;101098.66;10266547;28;20046;-72
2023/10/24 06:49:19;;;;;;;2.05;1.45;;;;;;;0.53;90.48;101111.56;10238543;29;20043;-72
2023/10/24 06:54:22;;;;;;;2.38;1.70;;;;;;;0.53;90.39;101114.28;10278425;28;20035;-71
2023/10/24 06:59:24;;;;;;;4.60;2.22;;;;;;;0.58;90.67;101130.69;10266806;28;20061;-72
2023/10/24 07:04:27;;;;;;;5.43;2.15;;;;;;;0.60;91.13;101134.00;10262960;29;20043;-70
2023/10/24 07:09:29;;;;;;;3.75;2.05;;;;;;;0.68;89.78;101138.38;10219828;29;20098;-70
2023/10/24 07:14:31;;;;;;;5.38;2.47;;;;;;;0.70;90.40;101146.31;10268145;28;20522;-70
2023/10/24 07:19:34;;;;;;;11.23;3.15;;;;;;;0.69;90.00;101141.91;10279228;29;20055;-70
2023/10/24 07:24:39;;;;;;;5.50;2.20;;;;;;;0.61;90.67;101145.66;10250487;28;20046;-72
2023/10/24 07:29:41;;;;;;;5.25;1.80;;;;;;;0.76;90.37;101154.41;10277758;29;20047;-72
2023/10/24 07:34:44;;;;;;;4.10;1.98;;;;;;;0.70;89.01;101149.84;10280686;28;20043;-71
2023/10/24 07:39:46;;;;;;;3.30;2.05;;;;;;;0.79;89.20;101163.97;10280554;29;20043;-71
2023/10/24 07:44:49;;;;;;;7.03;2.30;;;;;;;0.94;89.31;101163.81;10216346;29;20065;-71
2023/10/24 07:49:54;;;;;;;2.70;2.08;;;;;;;0.96;88.95;101170.66;10280331;29;20050;-70
2023/10/24 07:54:56;;;;;;;6.45;2.67;;;;;;;0.97;89.06;101166.09;10249054;28;20035;-71
2023/10/24 07:59:58;;;;;;;4.68;1.88;;;;;;;0.98;88.44;101174.00;10252348;29;20447;-71
2023/10/24 08:05:01;;;;;;;1.20;1.00;;;;;;;1.01;86.92;101178.16;10243079;29;20039;-71
2023/10/24 08:10:03;;;;;;;3.25;1.42;;;;;;;1.20;87.07;101182.75;10255614;28;20051;-71
2023/10/24 08:15:06;;;;;;;6.50;1.50;;;;;;;1.89;85.10;101176.06;10235151;28;20053;-70
2023/10/24 08:20:09;;;;;;;1.70;1.40;;;;;;;2.84;83.04;101185.31;10274544;28;20046;-69
2023/10/24 08:25:12;;;;;;;3.58;1.98;;;;;;;2.68;77.31;101192.91;10255994;29;20035;-69
2023/10/24 08:30:15;;;;;;;4.70;1.40;;;;;;;2.10;79.83;101192.91;10265955;29;20051;-70
2023/10/24 08:35:18;;;;;;;4.30;1.80;;;;;;;1.58;81.13;101207.34;10275901;28;20057;-71
2023/10/24 08:40:23;;;;;;;1.63;1.40;;;;;;;1.45;81.72;101205.44;10252028;29;20043;-69
2023/10/24 08:45:26;;;;;;;4.00;1.50;;;;;;;1.47;81.70;101200.66;10273567;29;20063;-70
2023/10/24 08:50:28;;;;;;;3.13;1.60;;;;;;;1.47;81.55;101199.84;10264820;28;20219;-69
2023/10/24 08:55:31;;;;;;;1.42;1.20;;;;;;;1.32;79.66;101197.31;10283288;29;20047;-68
2023/10/24 09:00:33;;;;;;;3.47;1.60;;;;;;;1.51;79.22;101201.91;10282690;29;20042;-67
2023/10/24 09:05:38;;;;;;;2.90;1.52;;;;;;;1.39;77.12;101203.59;10260259;29;20039;-68
2023/10/24 09:10:40;;;;;;;5.90;1.98;;;;;;;1.49;78.03;101204.00;10246360;29;20043;-67
2023/10/24 09:15:43;;;;;;;5.07;1.92;;;;;;;1.74;77.17;101200.69;10258988;29;20035;-69
2023/10/24 09:20:47;;;;;;;2.28;1.58;;;;;;;1.83;75.84;101198.56;10259627;29;20058;-66
2023/10/24 09:25:50;;;;;;;1.60;1.10;;;;;;;2.14;74.38;101216.84;10274758;28;20038;-70
2023/10/24 09:30:52;;;;;;;3.55;1.35;;;;;;;2.14;73.10;101211.44;10265251;29;20062;-68
2023/10/24 09:35:56;;;;;;;6.68;1.65;;;;;;;1.95;73.97;101219.38;10254675;29;20215;-69
2023/10/24 09:41:01;;;;;;;4.80;1.70;;;;;;;1.93;74.82;101207.94;10271857;29;20042;-70
2023/10/24 09:46:05;;;;;;;3.60;1.13;;;;;;;1.84;75.15;101214.59;10249397;29;20541;-73
2023/10/24 09:51:09;;;;;;;3.05;0.80;;;;;;;1.90;74.02;101212.91;10240198;29;20045;-70
2023/10/24 09:56:13;;;;;;;2.70;1.20;;;;;;;2.13;74.79;101212.47;10256739;28;20039;-69
2023/10/24 10:01:17;;;;;;;2.50;1.42;;;;;;;2.29;72.80;101217.44;10252852;29;20045;-69
2023/10/24 10:06:20;;;;;;;2.95;2.28;;;;;;;2.32;73.54;101209.72;10240149;29;20050;-70
2023/10/24 10:11:27;;;;;;;5.63;2.22;;;;;;;2.40;74.21;101223.00;10266446;28;20144;-67
2023/10/24 10:17:28;;;;;;;5.78;1.80;;;;;;;2.46;72.28;101224.06;10278209;29;20392;-68
2023/10/24 10:22:55;;;;;;;7.65;1.90;;;;;;;2.38;72.37;101218.84;10247937;28;20048;-67
2023/10/24 10:28:36;;;;;;;4.45;1.67;;;;;;;2.38;71.30;101218.84;10272794;29;20422;-66
2023/10/24 10:33:39;;;;;;;4.25;1.85;;;;;;;2.24;71.43;101217.22;10241379;29;20850;-70
2023/10/24 10:38:48;;;;;;;4.55;1.80;;;;;;;2.27;70.86;101211.41;10252723;29;20035;-69
2023/10/24 10:43:59;;;;;;;4.35;1.30;;;;;;;2.25;69.51;101218.88;10259598;29;20047;-70
2023/10/24 10:49:03;;;;;;;3.78;1.08;;;;;;;2.28;66.97;101218.47;10280862;29;20047;-70
2023/10/24 10:54:33;;;;;;;1.70;0.90;;;;;;;2.28;65.12;101219.31;10268966;28;20526;-69
2023/10/24 10:59:49;;;;;;;0.73;0.73;;;;;;;2.33;64.28;101224.09;10264219;28;20418;-69
2023/10/24 11:04:52;;;;;;;1.67;1.00;;;;;;;2.42;64.65;101220.09;10236690;29;20582;-70
2023/10/24 11:09:55;;;;;;;3.22;1.30;;;;;;;2.30;64.90;101225.34;10272892;28;20050;-69
2023/10/24 11:15:09;;;;;;;1.73;0.70;;;;;;;2.23;63.05;101226.38;10250101;28;20962;-69
2023/10/24 11:20:12;;;;;;;2.15;1.23;;;;;;;2.25;64.13;101235.13;10264983;28;20053;-70
2023/10/24 11:25:17;;;;;;;1.90;1.10;;;;;;;2.28;65.26;101230.16;10251965;28;20043;-70
2023/10/24 11:30:21;;;;;;;7.55;1.30;;;;;;;2.24;66.85;101236.19;10267340;28;20051;-72
2023/10/24 11:35:23;;;;;;;2.70;1.25;;;;;;;2.10;67.48;101233.53;10296255;28;20045;-70
2023/10/24 11:40:25;;;;;;;3.50;1.45;;;;;;;1.94;69.51;101250.19;10264382;28;20515;-72
2023/10/24 11:45:28;;;;;;;0.98;0.85;;;;;;;1.77;71.92;101251.66;10265907;28;20493;-70
2023/10/24 11:50:43;;;;;;;3.22;1.30;;;;;;;1.79;72.52;101253.09;10293897;28;20047;-70
2023/10/24 11:55:47;;;;;;;2.60;1.17;;;;;;;1.68;72.70;101248.31;10286532;28;20046;-69
2023/10/24 12:00:50;;;;;;;1.80;0.90;;;;;;;1.74;72.85;101254.78;10285458;28;20038;-69
2023/10/24 12:05:54;;;;;;;1.15;0.90;;;;;;;1.60;72.32;101248.53;10286983;28;20039;-68
2023/10/24 12:10:57;;;;;;;4.72;1.25;;;;;;;1.65;71.84;101264.97;10265224;23;20062;-69
2023/10/24 12:16:00;;;;;;;1.98;0.90;;;;;;;1.78;71.11;101266.84;10275666;28;20426;-68
2023/10/24 12:21:03;;;;;;;1.48;0.70;;;;;;;1.81;70.32;101264.56;10303735;28;20415;-69
2023/10/24 12:26:06;;;;;;;2.20;0.75;;;;;;;1.86;69.58;101263.09;10308323;23;20059;-73
2023/10/24 12:31:10;;;;;;;2.72;1.27;;;;;;;1.75;69.47;101275.38;10280402;28;20526;-72
2023/10/24 12:36:13;;;;;;;3.10;0.90;;;;;;;1.69;70.09;101278.91;10280849;28;20042;-74
2023/10/24 12:41:16;;;;;;;2.92;0.77;;;;;;;1.77;70.58;101276.00;10293017;23;20066;-65
2023/10/24 12:46:19;;;;;;;3.13;1.00;;;;;;;1.58;71.55;101283.06;10264762;28;20534;-65
2023/10/24 12:51:22;;;;;;;2.60;0.80;;;;;;;1.52;72.19;101265.78;10282483;28;20047;-65
2023/10/24 12:56:25;;;;;;;2.75;1.13;;;;;;;1.56;72.49;101273.47;10280342;28;20046;-64
2023/10/24 13:01:29;;;;;;;4.25;1.30;;;;;;;1.71;72.48;101271.41;10242799;28;20058;-66
2023/10/24 13:06:33;;;;;;;2.67;1.10;;;;;;;1.70;72.85;101275.16;10277787;28;20475;-65
2023/10/24 13:11:37;;;;;;;5.60;1.40;;;;;;;1.77;72.71;101279.53;10280553;28;20047;-65
2023/10/24 13:16:40;;;;;;;3.10;1.30;;;;;;;1.73;74.04;101280.16;10277904;29;20043;-64
2023/10/24 13:21:42;;;;;;;2.63;0.98;;;;;;;1.27;77.02;101291.75;10275918;29;20054;-63
2023/10/24 13:26:45;;;;;;;1.63;1.00;;;;;;;1.21;79.29;101284.44;10294211;23;20561;-70
2023/10/24 13:31:48;;;;;;;2.85;1.10;;;;;;;1.40;78.12;101285.53;10262753;29;20055;-73
2023/10/24 13:36:51;;;;;;;1.35;1.10;;;;;;;1.45;78.21;101281.16;10240416;29;20055;-69
2023/10/24 13:41:53;;;;;;;3.58;1.50;;;;;;;1.49;77.09;101282.41;10254398;23;20059;-70
2023/10/24 13:46:57;;;;;;;5.15;1.30;;;;;;;1.44;76.53;101286.78;10221123;29;20043;-70
2023/10/24 13:51:59;;;;;;;3.60;1.40;;;;;;;1.54;77.01;101291.78;10209766;29;20050;-69
2023/10/24 13:57:01;;;;;;;3.85;1.48;;;;;;;1.54;76.61;101291.78;10230587;23;20051;-69
2023/10/24 14:02:03;;;;;;;4.25;1.45;;;;;;;1.50;77.02;101303.00;10281057;29;20050;-70
2023/10/24 14:07:06;;;;;;;4.32;1.83;;;;;;;1.44;76.97;101297.59;10281564;29;20035;-72
2023/10/24 14:12:08;;;;;;;4.15;1.67;;;;;;;1.45;77.36;101304.69;10271757;23;20060;-73
2023/10/24 14:17:10;;;;;;;2.72;1.50;;;;;;;1.47;75.59;101311.53;10231180;29;20036;-71
2023/10/24 14:22:13;;;;;;;3.90;1.60;;;;;;;1.50;76.23;101305.72;10226072;29;20043;-72
2023/10/24 14:27:15;;;;;;;1.85;0.85;;;;;;;1.42;76.44;101305.94;10236042;29;20040;-71
2023/10/24 14:32:18;;;;;;;2.45;0.90;;;;;;;1.24;76.34;101311.06;10256528;23;20413;-68
2023/10/24 14:37:20;;;;;;;1.58;1.17;;;;;;;1.25;75.86;101314.63;10261880;29;20459;-68
2023/10/24 14:42:23;;;;;;;2.90;1.02;;;;;;;1.20;74.61;101307.91;10277682;29;20055;-68
2023/10/24 14:47:25;;;;;;;3.78;1.58;;;;;;;1.32;75.28;101310.88;10271498;28;20043;-67
2023/10/24 14:52:28;;;;;;;2.58;1.63;;;;;;;1.35;76.31;101310.47;10252047;28;20419;-67
2023/10/24 14:57:31;;;;;;;3.90;1.50;;;;;;;1.37;76.69;101313.78;10266882;29;20046;-67
2023/10/24 15:02:33;;;;;;;5.28;1.33;;;;;;;1.33;77.28;101307.13;10274980;28;20050;-67
2023/10/24 15:07:35;;;;;;;4.85;1.70;;;;;;;1.37;77.62;101308.38;10262646;28;20031;-67
2023/10/24 15:12:37;;;;;;;3.53;1.85;;;;;;;1.41;77.36;101311.53;10272511;28;20054;-66
2023/10/24 15:17:39;;;;;;;4.43;1.90;;;;;;;1.41;77.92;101315.06;10291260;23;20043;-63
2023/10/24 15:22:41;;;;;;;4.35;1.90;;;;;;;1.37;77.67;101318.38;10280527;28;20039;-64
2023/10/24 15:27:44;;;;;;;3.53;1.92;;;;;;;1.35;76.77;101325.84;10278936;28;20035;-62
2023/10/24 15:32:46;;;;;;;1.92;0.77;;;;;;;1.21;77.21;101324.97;10299992;23;20055;-68
2023/10/24 15:37:49;;;;;;;6.55;2.30;;;;;;;1.11;78.27;101329.94;10288084;23;20047;-84
2023/10/24 15:42:58;;;;;;;6.05;2.30;;;;;;;1.01;78.81;101329.47;10299812;28;20123;-83
2023/10/24 15:48:01;;;;;;;5.10;1.98;;;;;;;1.01;79.23;101324.06;10282062;28;20054;-89
2023/10/24 15:53:04;;;;;;;8.45;2.42;;;;;;;0.87;79.64;101325.91;10288648;28;20138;-87
2023/10/24 15:58:06;;;;;;;3.95;2.20;;;;;;;0.88;79.44;101335.69;10267272;28;20054;-90
2023/10/24 16:03:08;;;;;;;3.63;1.95;;;;;;;0.84;79.48;101334.38;10267245;28;20139;-86
2023/10/24 16:08:10;;;;;;;8.73;2.80;;;;;;;0.87;79.64;101340.25;10307598;28;20038;-86
2023/10/24 16:13:14;;;;;;;7.30;2.88;;;;;;;0.84;79.89;101335.22;10274180;28;20576;-86
2023/10/24 16:18:18;;;;;;;3.83;2.65;;;;;;;0.83;80.48;101336.25;10272846;29;20086;-86
2023/10/24 16:23:21;;;;;;;7.50;2.92;;;;;;;0.78;81.36;101346.84;10255013;28;20058;-85
2023/10/24 16:28:23;;;;;;;3.17;0.95;;;;;;;0.34;83.42;101333.66;10240152;28;20094;-90
2023/10/24 16:38:58;;;;;;;2.85;1.88;;;;;;;0.52;81.22;101330.47;10270961;29;20450;-65
2023/10/24 16:44:01;;;;;;;5.28;1.83;;;;;;;0.65;81.96;101338.66;10261037;29;20043;-63
2023/10/24 16:49:04;;;;;;;5.20;2.28;;;;;;;0.69;82.24;101330.97;10271352;29;20043;-64
2023/10/24 16:54:07;;;;;;;7.13;2.30;;;;;;;0.70;83.41;101332.66;10270601;29;20111;-62
2023/10/24 16:59:09;;;;;;;5.53;2.90;;;;;;;0.67;83.42;101349.25;10281389;28;20039;-64
2023/10/24 17:04:12;;;;;;;4.63;2.20;;;;;;;0.70;83.82;101341.59;10267041;28;20054;-64
2023/10/24 17:09:15;;;;;;;4.45;2.30;;;;;;;0.57;83.68;101342.34;10280346;29;20058;-63
2023/10/24 17:14:17;;;;;;;2.38;1.50;;;;;;;0.55;84.46;101343.59;10271363;29;20058;-64
2023/10/24 17:19:20;;;;;;;2.83;1.80;;;;;;;0.59;84.50;101334.06;10278326;29;20043;-64
2023/10/24 17:24:22;;;;;;;2.33;1.60;;;;;;;0.60;84.80;101333.00;10280453;28;20035;-66
2023/10/24 17:29:24;;;;;;;3.92;1.70;;;;;;;0.67;84.53;101338.44;10272135;28;20044;-63
2023/10/24 17:34:27;;;;;;;4.05;1.67;;;;;;;0.66;84.17;101343.00;10246263;29;20518;-65
2023/10/24 17:39:33;;;;;;;2.60;1.80;;;;;;;0.67;84.49;101351.94;10258861;29;20124;-65
2023/10/24 17:44:37;;;;;;;4.70;2.25;;;;;;;0.59;85.26;101361.88;10276043;28;20043;-64
2023/10/24 17:49:43;;;;;;;2.92;1.60;;;;;;;0.57;85.10;101361.25;10245732;29;20047;-64
2023/10/24 17:54:46;;;;;;;4.50;2.08;;;;;;;0.60;85.06;101351.91;10279222;29;20043;-64
2023/10/24 17:59:50;;;;;;;2.03;1.60;;;;;;;0.63;85.10;101359.63;10269576;29;20537;-65
2023/10/24 18:04:53;;;;;;;9.35;3.45;;;;;;;0.76;84.63;101364.28;10273744;29;20039;-64
2023/10/24 18:09:56;;;;;;;3.83;2.10;;;;;;;0.70;85.01;101365.91;10279699;29;20042;-65
2023/10/24 18:14:58;;;;;;;4.10;2.45;;;;;;;0.63;85.13;101369.59;10280520;29;20054;-66
2023/10/24 18:20:00;;;;;;;4.32;2.05;;;;;;;0.62;85.11;101378.72;10280092;29;20027;-66
2023/10/24 18:25:04;;;;;;;3.13;2.17;;;;;;;0.69;84.80;101372.31;10270505;29;20047;-64
2023/10/24 18:30:07;;;;;;;4.40;2.30;;;;;;;0.75;84.51;101376.94;10279249;29;20046;-63
2023/10/24 18:35:09;;;;;;;6.22;3.25;;;;;;;0.70;83.95;101375.88;10278597;29;20066;-66
2023/10/24 18:40:12;;;;;;;8.55;3.00;;;;;;;0.69;84.29;101380.44;10267759;29;20062;-64
2023/10/24 18:45:16;;;;;;;4.03;2.70;;;;;;;0.74;83.46;101377.97;10278238;29;20061;-64
2023/10/24 18:50:18;;;;;;;4.20;2.85;;;;;;;0.73;83.77;101386.28;10275597;29;20050;-65
2023/10/24 18:55:20;;;;;;;7.45;3.10;;;;;;;0.60;84.13;101400.53;10271727;29;20054;-64
2023/10/24 19:00:23;;;;;;;4.88;2.80;;;;;;;0.61;84.20;101388.69;10245847;29;20043;-64
2023/10/24 19:05:25;;;;;;;5.25;2.80;;;;;;;0.64;84.19;101392.88;10250169;23;20047;-68
2023/10/24 19:10:27;;;;;;;6.47;2.50;;;;;;;0.67;84.53;101400.56;10268739;28;20506;-67
2023/10/24 19:15:30;;;;;;;2.92;2.33;;;;;;;0.77;84.67;101398.34;10274842;28;20050;-68
2023/10/24 19:20:33;;;;;;;4.88;2.42;;;;;;;0.74;84.43;101393.34;10270268;23;20531;-66
2023/10/24 19:25:38;;;;;;;4.80;2.63;;;;;;;0.77;84.23;101398.34;10236462;29;20048;-64
2023/10/24 19:30:41;;;;;;;5.22;2.47;;;;;;;0.74;84.00;101407.69;10233608;29;20042;-61
2023/10/24 19:35:45;;;;;;;4.53;2.40;;;;;;;0.67;83.78;101417.59;10252471;23;20059;-69
2023/10/24 19:40:48;;;;;;;8.35;3.50;;;;;;;0.58;84.36;101421.50;10242378;29;20039;-68
2023/10/24 19:45:51;;;;;;;4.75;2.92;;;;;;;0.51;84.99;101413.34;10244314;29;20048;-68
2023/10/24 19:50:54;;;;;;;5.97;2.50;;;;;;;0.56;85.30;101423.56;10232799;23;20087;-62
2023/10/24 19:55:58;;;;;;;3.92;2.10;;;;;;;0.63;85.11;101416.34;10297813;28;20422;-62
2023/10/24 20:01:01;;;;;;;4.95;3.22;;;;;;;0.64;85.16;101422.56;10319032;28;20050;-62
2023/10/24 20:06:04;;;;;;;3.90;2.47;;;;;;;0.72;84.14;101419.75;10327154;23;20058;-66
2023/10/24 20:11:06;;;;;;;5.57;2.60;;;;;;;0.75;84.19;101412.06;10294016;28;20521;-65
2023/10/24 20:16:11;;;;;;;5.03;2.30;;;;;;;0.89;84.18;101419.22;10283174;28;20131;-68
2023/10/24 20:21:13;;;;;;;4.47;2.63;;;;;;;0.92;84.08;101423.41;10296209;28;20046;-66
2023/10/24 20:26:20;;;;;;;4.00;2.15;;;;;;;0.96;83.68;101413.84;10309666;28;20509;-66
2023/10/24 20:31:22;;;;;;;5.32;2.83;;;;;;;0.89;82.99;101415.69;10302742;28;20513;-66
2023/10/24 20:36:24;;;;;;;4.55;2.17;;;;;;;0.88;83.38;101408.63;10261114;23;20059;-63
2023/10/24 20:41:27;;;;;;;3.47;2.42;;;;;;;0.83;83.09;101409.19;10227909;29;20055;-63
2023/10/24 20:46:29;;;;;;;5.97;2.55;;;;;;;0.83;83.21;101398.38;10237278;29;20059;-63
2023/10/24 20:51:32;;;;;;;3.03;2.30;;;;;;;0.86;83.71;101407.97;10249161;23;20078;-64
2023/10/24 20:56:35;;;;;;;4.25;2.40;;;;;;;0.67;84.57;101412.19;10240175;29;20035;-64
2023/10/24 21:01:37;;;;;;;4.63;2.58;;;;;;;0.58;85.76;101422.34;10240744;29;20052;-64
2023/10/24 21:06:40;;;;;;;5.90;2.70;;;;;;;0.62;85.68;101421.94;10242346;23;20057;-63
2023/10/24 21:11:43;;;;;;;5.28;2.50;;;;;;;0.57;85.82;101425.25;10241751;29;20047;-63
2023/10/24 21:16:47;;;;;;;4.15;2.55;;;;;;;0.62;86.04;101430.88;10242016;29;20040;-62
2023/10/24 21:21:50;;;;;;;5.45;2.20;;;;;;;0.59;85.36;101415.06;10272401;23;20066;-65
2023/10/24 21:26:54;;;;;;;4.75;2.67;;;;;;;0.60;85.51;101419.44;10261278;28;20059;-65
2023/10/24 21:31:56;;;;;;;4.10;2.33;;;;;;;0.55;85.76;101421.91;10242938;29;20047;-66
2023/10/24 21:36:58;;;;;;;4.68;2.17;;;;;;;0.46;85.52;101420.34;10285699;23;20066;-64
2023/10/24 21:42:01;;;;;;;5.05;1.90;;;;;;;0.27;86.46;101422.69;10278406;29;20074;-65
2023/10/24 21:47:04;;;;;;;2.45;1.92;;;;;;;0.25;86.71;101422.06;10257237;28;20046;-64
2023/10/24 21:52:08;;;;;;;3.47;2.00;;;;;;;0.10;86.80;101432.09;10255982;23;20077;-64
2023/10/24 21:57:12;;;;;;;4.38;1.98;;;;;;;0.10;87.04;101445.59;10233618;29;20558;-64
2023/10/24 22:02:15;;;;;;;4.13;2.03;;;;;;;0.06;87.14;101438.06;10239589;29;20043;-64
2023/10/24 22:07:17;;;;;;;3.90;1.95;;;;;;;0.00;87.34;101418.09;10265628;23;20055;-63
2023/10/24 22:12:20;;;;;;;4.88;1.90;;;;;;;-0.03;87.77;101432.78;10260860;29;20600;-65
2023/10/24 22:17:23;;;;;;;4.40;1.88;;;;;;;-0.06;87.53;101435.03;10254099;29;20447;-64
2023/10/24 22:22:25;;;;;;;4.85;1.90;;;;;;;0.01;88.02;101430.56;10279930;23;20055;-63
2023/10/24 22:27:28;;;;;;;3.42;2.10;;;;;;;0.18;87.18;101431.16;10261271;29;20039;-64
2023/10/24 22:32:30;;;;;;;6.25;2.63;;;;;;;0.18;86.98;101431.97;10255094;28;21192;-63
2023/10/24 22:37:34;;;;;;;4.03;1.83;;;;;;;0.19;87.02;101422.00;10255907;23;20055;-63
2023/10/24 22:42:36;;;;;;;3.53;1.80;;;;;;;0.10;86.91;101415.91;10236989;29;20050;-63
2023/10/24 22:47:38;;;;;;;3.53;1.75;;;;;;;0.04;87.18;101422.09;10242224;29;20051;-64
2023/10/24 22:52:41;;;;;;;3.28;2.30;;;;;;;-0.04;87.52;101423.03;10243815;29;20546;-64
2023/10/24 22:57:44;;;;;;;5.70;2.33;;;;;;;-0.10;88.30;101420.28;10208987;29;20035;-63
2023/10/24 23:02:47;;;;;;;3.88;1.92;;;;;;;-0.17;88.21;101428.31;10234496;29;20123;-64
2023/10/24 23:07:49;;;;;;;4.53;2.33;;;;;;;-0.28;89.13;101422.56;10303146;23;20054;-62
2023/10/24 23:12:51;;;;;;;3.50;1.40;;;;;;;-0.43;89.41;101417.22;10303514;28;20047;-62
2023/10/24 23:17:53;;;;;;;3.78;1.48;;;;;;;-0.51;90.28;101426.25;10307043;28;20039;-62
2023/10/24 23:22:56;;;;;;;5.40;1.80;;;;;;;-0.65;90.90;101425.25;10285922;23;20058;-68
2023/10/24 23:27:58;;;;;;;3.00;1.65;;;;;;;-0.67;91.25;101431.88;10252576;29;20047;-68
2023/10/24 23:33:00;;;;;;;2.65;1.70;;;;;;;-0.73;91.40;101424.50;10264876;29;20050;-67
2023/10/24 23:38:02;;;;;;;4.60;1.67;;;;;;;-0.71;91.33;101417.91;10280601;23;20584;-64